<?xml version="1.0" encoding="UTF-8" standalone="no" ?>
<gpx xmlns="http://www.topografix.com/GPX/1/1" xmlns:xsi="http://www.w3.org/2001/XMLSchema-instance" xsi:schemaLocation="http://www.topografix.com/GPX/1/1 http://www.topografix.com/GPX/1/1/gpx.xsd" version="1.1" creator="VisuGPX - https://www.visugpx.com">
  <metadata>
    <name>boucles beaumont</name>
    <desc><![CDATA[boucles beaumont du périgord]]></desc>
  </metadata>
  <trk>
    <name><![CDATA[BBmt41]]></name>
    <trkseg>
      <trkpt lat="44.76835" lon="0.77193">
        <ele>126</ele>
        <time>2009-01-15T11:38:57Z</time>
      </trkpt>
      <trkpt lat="44.76818" lon="0.7718">
        <ele>125</ele>
        <time>2009-01-15T11:39:13Z</time>
      </trkpt>
      <trkpt lat="44.76798" lon="0.77168">
        <ele>126</ele>
        <time>2009-01-15T11:39:18Z</time>
      </trkpt>
      <trkpt lat="44.7678" lon="0.77158">
        <ele>127</ele>
        <time>2009-01-15T11:39:22Z</time>
      </trkpt>
      <trkpt lat="44.76763" lon="0.7715">
        <ele>127</ele>
        <time>2009-01-15T11:39:27Z</time>
      </trkpt>
      <trkpt lat="44.76743" lon="0.77138">
        <ele>127</ele>
        <time>2009-01-15T11:39:32Z</time>
      </trkpt>
      <trkpt lat="44.76728" lon="0.77123">
        <ele>127</ele>
        <time>2009-01-15T11:39:36Z</time>
      </trkpt>
      <trkpt lat="44.76713" lon="0.77105">
        <ele>127</ele>
        <time>2009-01-15T11:39:39Z</time>
      </trkpt>
      <trkpt lat="44.76698" lon="0.7708">
        <ele>127</ele>
        <time>2009-01-15T11:39:43Z</time>
      </trkpt>
      <trkpt lat="44.76688" lon="0.7705">
        <ele>129</ele>
        <time>2009-01-15T11:39:47Z</time>
      </trkpt>
      <trkpt lat="44.76678" lon="0.77023">
        <ele>130</ele>
        <time>2009-01-15T11:39:51Z</time>
      </trkpt>
      <trkpt lat="44.7667" lon="0.76998">
        <ele>132</ele>
        <time>2009-01-15T11:39:55Z</time>
      </trkpt>
      <trkpt lat="44.7665" lon="0.77005">
        <ele>132</ele>
        <time>2009-01-15T11:40:06Z</time>
      </trkpt>
      <trkpt lat="44.76633" lon="0.77023">
        <ele>131</ele>
        <time>2009-01-15T11:40:09Z</time>
      </trkpt>
      <trkpt lat="44.76613" lon="0.77043">
        <ele>132</ele>
        <time>2009-01-15T11:40:12Z</time>
      </trkpt>
      <trkpt lat="44.76598" lon="0.7706">
        <ele>131</ele>
        <time>2009-01-15T11:40:14Z</time>
      </trkpt>
      <trkpt lat="44.76575" lon="0.77065">
        <ele>131</ele>
        <time>2009-01-15T11:40:20Z</time>
      </trkpt>
      <trkpt lat="44.7655" lon="0.77068">
        <ele>130</ele>
        <time>2009-01-15T11:40:24Z</time>
      </trkpt>
      <trkpt lat="44.7653" lon="0.77068">
        <ele>130</ele>
        <time>2009-01-15T11:40:32Z</time>
      </trkpt>
      <trkpt lat="44.7651" lon="0.7707">
        <ele>129</ele>
        <time>2009-01-15T11:40:39Z</time>
      </trkpt>
      <trkpt lat="44.76488" lon="0.77075">
        <ele>128</ele>
        <time>2009-01-15T11:40:45Z</time>
      </trkpt>
      <trkpt lat="44.7647" lon="0.77093">
        <ele>129</ele>
        <time>2009-01-15T11:40:49Z</time>
      </trkpt>
      <trkpt lat="44.76453" lon="0.77115">
        <ele>129</ele>
        <time>2009-01-15T11:40:53Z</time>
      </trkpt>
      <trkpt lat="44.76435" lon="0.7713">
        <ele>132</ele>
        <time>2009-01-15T11:40:57Z</time>
      </trkpt>
      <trkpt lat="44.76413" lon="0.77138">
        <ele>134</ele>
        <time>2009-01-15T11:41:02Z</time>
      </trkpt>
      <trkpt lat="44.76405" lon="0.77165">
        <ele>135</ele>
        <time>2009-01-15T11:41:07Z</time>
      </trkpt>
      <trkpt lat="44.76408" lon="0.77193">
        <ele>137</ele>
        <time>2009-01-15T11:41:12Z</time>
      </trkpt>
      <trkpt lat="44.7639" lon="0.77205">
        <ele>133</ele>
        <time>2009-01-15T11:41:27Z</time>
      </trkpt>
      <trkpt lat="44.76373" lon="0.77213">
        <ele>127</ele>
        <time>2009-01-15T11:41:34Z</time>
      </trkpt>
      <trkpt lat="44.76353" lon="0.77215">
        <ele>125</ele>
        <time>2009-01-15T11:41:41Z</time>
      </trkpt>
      <trkpt lat="44.76333" lon="0.77218">
        <ele>125</ele>
        <time>2009-01-15T11:41:48Z</time>
      </trkpt>
      <trkpt lat="44.76313" lon="0.7722">
        <ele>123</ele>
        <time>2009-01-15T11:41:53Z</time>
      </trkpt>
      <trkpt lat="44.7629" lon="0.77223">
        <ele>124</ele>
        <time>2009-01-15T11:42:00Z</time>
      </trkpt>
      <trkpt lat="44.7627" lon="0.77225">
        <ele>125</ele>
        <time>2009-01-15T11:42:05Z</time>
      </trkpt>
      <trkpt lat="44.76273" lon="0.77255">
        <ele>129</ele>
        <time>2009-01-15T11:42:18Z</time>
      </trkpt>
      <trkpt lat="44.76278" lon="0.7728">
        <ele>128</ele>
        <time>2009-01-15T11:42:22Z</time>
      </trkpt>
      <trkpt lat="44.76283" lon="0.77305">
        <ele>127</ele>
        <time>2009-01-15T11:42:26Z</time>
      </trkpt>
      <trkpt lat="44.76288" lon="0.7733">
        <ele>126</ele>
        <time>2009-01-15T11:42:30Z</time>
      </trkpt>
      <trkpt lat="44.76293" lon="0.77358">
        <ele>124</ele>
        <time>2009-01-15T11:42:35Z</time>
      </trkpt>
      <trkpt lat="44.76298" lon="0.77383">
        <ele>122</ele>
        <time>2009-01-15T11:42:41Z</time>
      </trkpt>
      <trkpt lat="44.76303" lon="0.77408">
        <ele>119</ele>
        <time>2009-01-15T11:42:48Z</time>
      </trkpt>
      <trkpt lat="44.76305" lon="0.77435">
        <ele>117</ele>
        <time>2009-01-15T11:42:57Z</time>
      </trkpt>
      <trkpt lat="44.76303" lon="0.77463">
        <ele>111</ele>
        <time>2009-01-15T11:43:07Z</time>
      </trkpt>
      <trkpt lat="44.76285" lon="0.77485">
        <ele>113</ele>
        <time>2009-01-15T11:43:13Z</time>
      </trkpt>
      <trkpt lat="44.7627" lon="0.77505">
        <ele>115</ele>
        <time>2009-01-15T11:43:18Z</time>
      </trkpt>
      <trkpt lat="44.76255" lon="0.77523">
        <ele>116</ele>
        <time>2009-01-15T11:43:22Z</time>
      </trkpt>
      <trkpt lat="44.7624" lon="0.7754">
        <ele>118</ele>
        <time>2009-01-15T11:43:26Z</time>
      </trkpt>
      <trkpt lat="44.76225" lon="0.77555">
        <ele>120</ele>
        <time>2009-01-15T11:43:30Z</time>
      </trkpt>
      <trkpt lat="44.7621" lon="0.77575">
        <ele>122</ele>
        <time>2009-01-15T11:43:34Z</time>
      </trkpt>
      <trkpt lat="44.76195" lon="0.77595">
        <ele>123</ele>
        <time>2009-01-15T11:43:38Z</time>
      </trkpt>
      <trkpt lat="44.7618" lon="0.7761">
        <ele>123</ele>
        <time>2009-01-15T11:43:41Z</time>
      </trkpt>
      <trkpt lat="44.76163" lon="0.77625">
        <ele>125</ele>
        <time>2009-01-15T11:43:45Z</time>
      </trkpt>
      <trkpt lat="44.76145" lon="0.77638">
        <ele>126</ele>
        <time>2009-01-15T11:43:49Z</time>
      </trkpt>
      <trkpt lat="44.76128" lon="0.77648">
        <ele>129</ele>
        <time>2009-01-15T11:43:54Z</time>
      </trkpt>
      <trkpt lat="44.7611" lon="0.77658">
        <ele>133</ele>
        <time>2009-01-15T11:44:00Z</time>
      </trkpt>
      <trkpt lat="44.76095" lon="0.77673">
        <ele>132</ele>
        <time>2009-01-15T11:44:09Z</time>
      </trkpt>
      <trkpt lat="44.76078" lon="0.77688">
        <ele>134</ele>
        <time>2009-01-15T11:44:15Z</time>
      </trkpt>
      <trkpt lat="44.7606" lon="0.77703">
        <ele>136</ele>
        <time>2009-01-15T11:44:21Z</time>
      </trkpt>
      <trkpt lat="44.76045" lon="0.77718">
        <ele>134</ele>
        <time>2009-01-15T11:44:29Z</time>
      </trkpt>
      <trkpt lat="44.7603" lon="0.77733">
        <ele>136</ele>
        <time>2009-01-15T11:44:33Z</time>
      </trkpt>
      <trkpt lat="44.7602" lon="0.77758">
        <ele>136</ele>
        <time>2009-01-15T11:44:41Z</time>
      </trkpt>
      <trkpt lat="44.76023" lon="0.77788">
        <ele>141</ele>
        <time>2009-01-15T11:44:47Z</time>
      </trkpt>
      <trkpt lat="44.7601" lon="0.77808">
        <ele>142</ele>
        <time>2009-01-15T11:44:51Z</time>
      </trkpt>
      <trkpt lat="44.75995" lon="0.77828">
        <ele>144</ele>
        <time>2009-01-15T11:44:55Z</time>
      </trkpt>
      <trkpt lat="44.75983" lon="0.77855">
        <ele>147</ele>
        <time>2009-01-15T11:45:00Z</time>
      </trkpt>
      <trkpt lat="44.7597" lon="0.77875">
        <ele>148</ele>
        <time>2009-01-15T11:45:04Z</time>
      </trkpt>
      <trkpt lat="44.75958" lon="0.77895">
        <ele>148</ele>
        <time>2009-01-15T11:45:08Z</time>
      </trkpt>
      <trkpt lat="44.75945" lon="0.77915">
        <ele>149</ele>
        <time>2009-01-15T11:45:12Z</time>
      </trkpt>
      <trkpt lat="44.75943" lon="0.77945">
        <ele>151</ele>
        <time>2009-01-15T11:45:17Z</time>
      </trkpt>
      <trkpt lat="44.75945" lon="0.77973">
        <ele>152</ele>
        <time>2009-01-15T11:45:21Z</time>
      </trkpt>
      <trkpt lat="44.75948" lon="0.78">
        <ele>152</ele>
        <time>2009-01-15T11:45:24Z</time>
      </trkpt>
      <trkpt lat="44.7595" lon="0.7803">
        <ele>150</ele>
        <time>2009-01-15T11:45:27Z</time>
      </trkpt>
      <trkpt lat="44.75955" lon="0.78058">
        <ele>150</ele>
        <time>2009-01-15T11:45:30Z</time>
      </trkpt>
      <trkpt lat="44.75955" lon="0.78085">
        <ele>152</ele>
        <time>2009-01-15T11:45:33Z</time>
      </trkpt>
      <trkpt lat="44.75955" lon="0.78118">
        <ele>153</ele>
        <time>2009-01-15T11:45:37Z</time>
      </trkpt>
      <trkpt lat="44.75953" lon="0.78148">
        <ele>157</ele>
        <time>2009-01-15T11:46:32Z</time>
      </trkpt>
      <trkpt lat="44.75948" lon="0.78161">
        <ele>154</ele>
        <time>2009-01-15T11:46:38Z</time>
      </trkpt>
    </trkseg>
  </trk>
</gpx>